Terminal Aerodrome Forecast
Issued by NWS Riverton, WY

Home | Current Version | Previous Version | Text Only | Print | Product List | Glossary On
Versions: 1 2 3 4 5 6 7 8 9 10 11 12 13 14 15
000
FTUS45 KRIW 181123
TAFRIW
TAF
KRIW 181123Z 1812/1912 VRB06KT P6SM BKN200
     FM182200 19009KT P6SM SCT110 BKN200
     FM190400 21012KT P6SM SCT100 BKN200 WS020/24032KT=

USA.gov is the U.S. government's official web portal to all federal, state and local government web resources and services.